Minerva Zen — SVBN3 — position and weather

sailwx.info

Track history (hours):
 
Tides and Currents Weather Stations Pressure Air Temp Water Temp Dewpoint Dewpoint Depression Visibility Wind Speed Wind Dir Waves Ship Positions

Minerva Zen

Last reported at 2015-Aug-29 04:17 UTC. Time now 2015-Aug-29 12:43 UTC.
Position N 30°03' W 090°41'.

Length 183 m; draft 11 m.

Type: Ship. MMSI: 241190000.

Date/timePositionNaut miles runAvg speedWind from/ knotsBaromVisibWave heightAir tempDewpointWater temp
2015-Aug-29 04:17N 30°03' W 090°41'13 7.6
2015-Aug-29 02:31N 29°60' W 090°26'6 0.4
2015-Aug-28 11:27N 29°56' W 090°20'0 0.0
2015-Aug-28 10:33N 29°56' W 090°20'0 0.0
2015-Aug-28 09:33N 29°56' W 090°20'0 0.0
2015-Aug-28 08:33N 29°56' W 090°20'0 0.0
2015-Aug-28 07:33N 29°56' W 090°20'0 0.0
2015-Aug-28 06:33N 29°56' W 090°20'0 0.0
2015-Aug-28 05:33N 29°56' W 090°20'0 0.0
2015-Aug-27 13:33N 29°56' W 090°20'0 0.0
2015-Aug-27 12:03N 29°56' W 090°20'0 0.0
2015-Aug-27 08:09N 29°56' W 090°20'0 0.0
2015-Aug-27 07:21N 29°56' W 090°20'0 0.0
2015-Aug-27 06:33N 29°56' W 090°20'0 0.0
2015-Aug-27 05:33N 29°56' W 090°20'0 0.0
2015-Aug-27 04:09N 29°56' W 090°20'0 0.0
2015-Aug-27 03:33N 29°56' W 090°20'0 0.0
2015-Aug-27 02:27N 29°56' W 090°20'3 0.1
2015-Aug-26 05:32N 29°58' W 090°17'0 0.0
2015-Aug-26 04:32N 29°58' W 090°17'0 0.0
2015-Aug-26 03:14N 29°58' W 090°17'0 0.0
2015-Aug-26 02:32N 29°58' W 090°17'0 0.0
2015-Aug-26 01:32N 29°58' W 090°17'8 0.7
2015-Aug-25 13:28N 29°55' W 090°08'  
Track history (hours):
 
Tides and Currents Weather Stations Pressure Air Temp Water Temp Dewpoint Dewpoint Depression Visibility Wind Speed Wind Dir Waves Ship Positions

Minerva Zen

Last reported at 2015-Aug-29 04:17 UTC. Time now 2015-Aug-29 12:43 UTC.
Position N 30°03' W 090°41'.

Length 183 m; draft 11 m.

Type: Ship. MMSI: 241190000.

Date/timePositionNaut miles runAvg speedWind from/ knotsBaromVisibWave heightAir tempDewpointWater temp
2015-Aug-29 04:17N 30°03' W 090°41'13 7.6
2015-Aug-29 02:31N 29°60' W 090°26'6 0.4
2015-Aug-28 11:27N 29°56' W 090°20'0 0.0
2015-Aug-28 10:33N 29°56' W 090°20'0 0.0
2015-Aug-28 09:33N 29°56' W 090°20'0 0.0
2015-Aug-28 08:33N 29°56' W 090°20'0 0.0
2015-Aug-28 07:33N 29°56' W 090°20'0 0.0
2015-Aug-28 06:33N 29°56' W 090°20'0 0.0
2015-Aug-28 05:33N 29°56' W 090°20'0 0.0
2015-Aug-27 13:33N 29°56' W 090°20'0 0.0
2015-Aug-27 12:03N 29°56' W 090°20'0 0.0
2015-Aug-27 08:09N 29°56' W 090°20'0 0.0
2015-Aug-27 07:21N 29°56' W 090°20'0 0.0
2015-Aug-27 06:33N 29°56' W 090°20'0 0.0
2015-Aug-27 05:33N 29°56' W 090°20'0 0.0
2015-Aug-27 04:09N 29°56' W 090°20'0 0.0
2015-Aug-27 03:33N 29°56' W 090°20'0 0.0
2015-Aug-27 02:27N 29°56' W 090°20'3 0.1
2015-Aug-26 05:32N 29°58' W 090°17'0 0.0
2015-Aug-26 04:32N 29°58' W 090°17'0 0.0
2015-Aug-26 03:14N 29°58' W 090°17'0 0.0
2015-Aug-26 02:32N 29°58' W 090°17'0 0.0
2015-Aug-26 01:32N 29°58' W 090°17'8 0.7
2015-Aug-25 13:28N 29°55' W 090°08'  

Dump ship's entire track history